Time;durP1;ratioP1;P1;durP2;ratioP2;P2;SDS_P1;SDS_P2;PMS_P1;PMS_P2;Temp;Humidity;BMP_temperature;BMP_pressure;BME280_temperature;BME280_humidity;BME280_pressure;Samples;Min_cycle;Max_cycle;Signal;HPM_P1;HPM_P2
2023/04/18 00:00:23;;;;;;;9.83;6.93;;;6.90;99.90;;;;;;4976597;28;20540;-83
2023/04/18 00:02:52;;;;;;;11.33;6.93;;;6.90;99.90;;;;;;4975306;28;20227;-82
2023/04/18 00:05:20;;;;;;;10.13;6.73;;;6.90;99.90;;;;;;4991529;28;20204;-83
2023/04/18 00:07:46;;;;;;;12.67;7.97;;;6.90;99.90;;;;;;4975160;28;20239;-82
2023/04/18 00:10:12;;;;;;;13.77;7.80;;;6.90;99.90;;;;;;4976519;28;20189;-82
2023/04/18 00:12:38;;;;;;;9.77;6.83;;;6.90;99.90;;;;;;4991160;28;20196;-83
2023/04/18 00:15:07;;;;;;;10.07;6.57;;;6.90;99.90;;;;;;4976476;28;20180;-82
2023/04/18 00:17:34;;;;;;;10.13;7.40;;;6.90;99.90;;;;;;4975163;28;20283;-83
2023/04/18 00:20:06;;;;;;;10.97;6.63;;;6.90;99.90;;;;;;4974284;28;20279;-82
2023/04/18 00:22:32;;;;;;;11.83;7.73;;;6.90;99.90;;;;;;4990772;28;20181;-83
2023/04/18 00:24:58;;;;;;;11.43;7.63;;;6.90;99.90;;;;;;4974973;28;20201;-83
2023/04/18 00:27:24;;;;;;;13.77;8.17;;;6.90;99.90;;;;;;4974946;28;20191;-83
2023/04/18 00:29:50;;;;;;;11.87;7.80;;;6.90;99.90;;;;;;4975683;28;20180;-83
2023/04/18 00:32:16;;;;;;;11.67;7.50;;;6.90;99.90;;;;;;4975861;28;20254;-83
2023/04/18 00:34:42;;;;;;;12.63;8.33;;;6.90;99.90;;;;;;4976136;28;20612;-83
2023/04/18 00:37:08;;;;;;;11.40;7.60;;;6.80;99.90;;;;;;4975953;28;20199;-83
2023/04/18 00:39:35;;;;;;;11.23;7.63;;;6.80;99.90;;;;;;4974995;28;20216;-83
2023/04/18 00:42:03;;;;;;;11.97;8.53;;;6.80;99.90;;;;;;4975665;28;20169;-83
2023/04/18 00:46:58;;;;;;;14.37;9.17;;;6.70;99.90;;;;;;5009078;28;20680;-82
2023/04/18 00:49:25;;;;;;;13.33;9.10;;;6.70;99.90;;;;;;5013837;28;20194;-82
2023/04/18 00:51:53;;;;;;;13.70;8.70;;;6.70;99.90;;;;;;5014935;28;20479;-82
2023/04/18 00:54:19;;;;;;;12.97;9.17;;;6.70;99.90;;;;;;5014878;28;20180;-82
2023/04/18 00:56:45;;;;;;;13.47;9.17;;;6.70;99.90;;;;;;5014990;28;20186;-82
2023/04/18 00:59:12;;;;;;;14.53;9.93;;;6.60;99.90;;;;;;5014299;28;20280;-83
2023/04/18 01:01:42;;;;;;;17.13;9.73;;;6.60;99.90;;;;;;5012835;28;20190;-81
2023/04/18 01:04:08;;;;;;;15.90;9.37;;;6.60;99.90;;;;;;5014992;28;20167;-83
2023/04/18 01:06:35;;;;;;;13.67;9.47;;;6.60;99.90;;;;;;5013049;28;20215;-82
2023/04/18 01:09:02;;;;;;;14.33;9.50;;;6.60;99.90;;;;;;5013276;28;20629;-82
2023/04/18 01:11:28;;;;;;;12.93;9.30;;;6.60;99.90;;;;;;5014305;28;20672;-83
2023/04/18 01:14:01;;;;;;;18.87;10.27;;;6.60;99.90;;;;;;5014339;28;20186;-82
2023/04/18 01:16:28;;;;;;;15.63;9.60;;;6.60;99.90;;;;;;5013823;28;20183;-83
2023/04/18 01:18:55;;;;;;;15.37;9.53;;;6.60;99.90;;;;;;5014482;28;20199;-82
2023/04/18 01:21:25;;;;;;;15.20;9.20;;;6.60;99.90;;;;;;5012933;28;20190;-82
2023/04/18 01:23:52;;;;;;;16.50;10.13;;;6.50;99.90;;;;;;5013197;28;20266;-82
2023/04/18 01:26:18;;;;;;;15.13;10.23;;;6.50;99.90;;;;;;5014309;28;20184;-82
2023/04/18 01:28:44;;;;;;;14.70;9.83;;;6.50;99.90;;;;;;5014427;28;20606;-82
2023/04/18 01:31:10;;;;;;;13.97;9.90;;;6.50;99.90;;;;;;5013999;28;20241;-82
2023/04/18 01:33:36;;;;;;;15.90;10.07;;;6.40;99.90;;;;;;5013890;28;20206;-82
2023/04/18 01:36:02;;;;;;;15.67;10.50;;;6.40;99.90;;;;;;5014153;28;20270;-83
2023/04/18 01:38:27;;;;;;;14.73;10.53;;;6.50;99.90;;;;;;5012956;28;20612;-82
2023/04/18 01:40:53;;;;;;;16.73;10.67;;;6.50;99.90;;;;;;5013944;28;20167;-81
2023/04/18 01:43:19;;;;;;;14.67;10.43;;;6.50;99.90;;;;;;5012872;28;20179;-82
2023/04/18 01:45:44;;;;;;;16.30;10.40;;;6.50;99.90;;;;;;5012380;28;20242;-82
2023/04/18 01:48:10;;;;;;;20.20;10.80;;;6.50;99.90;;;;;;5014048;28;20179;-82
2023/04/18 01:50:36;;;;;;;17.03;11.73;;;6.40;99.90;;;;;;5013838;28;20194;-83
2023/04/18 01:53:01;;;;;;;17.20;10.63;;;6.40;99.90;;;;;;5013942;28;20610;-82
2023/04/18 01:55:27;;;;;;;17.50;11.90;;;6.40;99.90;;;;;;5013906;28;20610;-82
2023/04/18 01:57:53;;;;;;;14.50;10.53;;;6.40;99.90;;;;;;5013897;28;20188;-83
2023/04/18 02:00:19;;;;;;;16.20;10.70;;;6.50;99.90;;;;;;5013598;28;20210;-83
2023/04/18 02:02:45;;;;;;;17.73;11.03;;;6.50;99.90;;;;;;5012435;28;20175;-82
2023/04/18 02:05:11;;;;;;;15.37;10.60;;;6.50;99.90;;;;;;5012659;28;20187;-82
2023/04/18 02:07:37;;;;;;;15.13;10.67;;;6.50;99.90;;;;;;5013889;28;20178;-82
2023/04/18 02:10:03;;;;;;;18.20;11.03;;;6.50;99.90;;;;;;5012323;28;20558;-83
2023/04/18 02:12:28;;;;;;;18.83;10.97;;;6.50;99.90;;;;;;5012445;28;20210;-83
2023/04/18 02:14:54;;;;;;;18.67;11.07;;;6.40;99.90;;;;;;5013799;28;20609;-82
2023/04/18 02:17:22;;;;;;;16.20;10.80;;;6.50;99.90;;;;;;5013591;28;20632;-82
2023/04/18 02:19:52;;;;;;;17.87;10.10;;;6.50;99.90;;;;;;5013530;28;20298;-83
2023/04/18 02:22:17;;;;;;;19.87;11.50;;;6.50;99.90;;;;;;5012305;28;20183;-82
2023/04/18 02:24:44;;;;;;;16.10;10.07;;;6.50;99.90;;;;;;5013633;28;20175;-83
2023/04/18 02:27:10;;;;;;;16.73;10.70;;;6.50;99.90;;;;;;5013757;28;20187;-83
2023/04/18 02:29:35;;;;;;;15.47;9.90;;;6.50;99.90;;;;;;5012673;28;20526;-82
2023/04/18 02:32:02;;;;;;;16.07;10.40;;;6.50;99.90;;;;;;5011947;28;20183;-82
2023/04/18 02:34:28;;;;;;;15.20;10.57;;;6.50;99.90;;;;;;5013587;28;20182;-82
2023/04/18 02:36:53;;;;;;;17.47;10.70;;;6.40;99.90;;;;;;5013649;28;20175;-83
2023/04/18 02:39:20;;;;;;;17.77;10.90;;;6.40;99.90;;;;;;5012136;28;20292;-83
2023/04/18 02:41:45;;;;;;;18.33;11.33;;;6.50;99.90;;;;;;5012088;28;20211;-83
2023/04/18 02:44:11;;;;;;;15.07;10.23;;;6.50;99.90;;;;;;5014632;28;20672;-82
2023/04/18 02:46:37;;;;;;;13.60;10.30;;;6.50;99.90;;;;;;5001283;28;20239;-83
2023/04/18 02:49:02;;;;;;;17.13;10.83;;;6.50;99.90;;;;;;4997465;28;20203;-84
2023/04/18 02:51:28;;;;;;;16.90;10.00;;;6.50;99.90;;;;;;4996142;28;20176;-82
2023/04/18 02:53:55;;;;;;;15.00;9.37;;;6.50;99.90;;;;;;5012426;28;20532;-83
2023/04/18 02:56:21;;;;;;;15.30;10.00;;;6.50;99.90;;;;;;5012670;28;20630;-83
2023/04/18 02:58:47;;;;;;;16.60;10.37;;;6.50;99.90;;;;;;4996049;28;20203;-82
2023/04/18 03:01:14;;;;;;;13.70;9.50;;;6.50;99.90;;;;;;4996965;28;20263;-83
2023/04/18 03:03:40;;;;;;;14.10;10.17;;;6.50;99.90;;;;;;4996046;28;20561;-82
2023/04/18 03:06:06;;;;;;;12.30;8.70;;;6.50;99.90;;;;;;4997278;28;20176;-83
2023/04/18 03:08:31;;;;;;;17.57;10.87;;;6.50;99.90;;;;;;4997208;28;20524;-82
2023/04/18 03:10:57;;;;;;;14.97;9.67;;;6.50;99.90;;;;;;4997127;28;20168;-82
2023/04/18 03:13:24;;;;;;;16.60;9.63;;;6.50;99.90;;;;;;4997088;28;20515;-83
2023/04/18 03:15:50;;;;;;;12.60;9.30;;;6.50;99.90;;;;;;5005909;28;20175;-82
2023/04/18 03:18:16;;;;;;;14.60;9.70;;;6.50;99.90;;;;;;5015369;28;20184;-82
2023/04/18 03:20:41;;;;;;;13.93;9.97;;;6.50;99.90;;;;;;5016197;28;20419;-83
2023/04/18 03:23:07;;;;;;;14.90;9.50;;;6.50;99.90;;;;;;5016756;28;20210;-82
2023/04/18 03:25:33;;;;;;;15.47;10.43;;;6.50;99.90;;;;;;5015191;28;20321;-82
2023/04/18 03:27:59;;;;;;;14.10;9.97;;;6.50;99.90;;;;;;5016608;28;20179;-84
2023/04/18 03:30:25;;;;;;;15.37;9.47;;;6.40;99.90;;;;;;5016017;28;20175;-82
2023/04/18 03:32:52;;;;;;;14.63;9.37;;;6.40;99.90;;;;;;5016314;28;20186;-81
2023/04/18 03:35:18;;;;;;;13.87;9.37;;;6.40;99.90;;;;;;5015638;28;20187;-83
2023/04/18 03:37:44;;;;;;;14.90;9.50;;;6.50;99.90;;;;;;5015001;28;20179;-83
2023/04/18 03:40:10;;;;;;;15.03;9.67;;;6.40;99.90;;;;;;5014982;28;20592;-82
2023/04/18 03:42:36;;;;;;;16.07;9.80;;;6.40;99.90;;;;;;5016016;28;20168;-82
2023/04/18 03:45:02;;;;;;;13.87;9.60;;;6.40;99.90;;;;;;5015913;28;20283;-82
2023/04/18 03:47:29;;;;;;;14.73;10.30;;;6.40;99.90;;;;;;5015932;28;20167;-83
2023/04/18 03:49:55;;;;;;;13.40;9.83;;;6.40;99.90;;;;;;5015641;28;20168;-81
2023/04/18 03:52:21;;;;;;;13.83;9.87;;;6.30;99.90;;;;;;5015528;28;20179;-83
2023/04/18 03:54:47;;;;;;;15.53;9.93;;;6.30;99.90;;;;;;5015930;28;20518;-83
2023/04/18 03:57:12;;;;;;;14.33;9.90;;;6.30;99.90;;;;;;5014700;28;20172;-83
2023/04/18 03:59:40;;;;;;;15.13;10.03;;;6.30;99.90;;;;;;5014485;28;20347;-83
2023/04/18 04:02:06;;;;;;;16.60;10.27;;;6.30;99.90;;;;;;5015601;28;20206;-82
2023/04/18 04:04:32;;;;;;;16.17;10.63;;;6.30;99.90;;;;;;5015776;28;20199;-83
2023/04/18 04:06:59;;;;;;;17.10;9.80;;;6.30;99.90;;;;;;5015863;28;20719;-82
2023/04/18 04:09:25;;;;;;;17.57;10.13;;;6.30;99.90;;;;;;5015437;28;20187;-83
2023/04/18 04:11:50;;;;;;;14.23;9.70;;;6.30;99.90;;;;;;5015642;28;20174;-85
2023/04/18 04:14:16;;;;;;;16.27;10.33;;;6.30;99.90;;;;;;5015706;28;20179;-83
2023/04/18 04:16:42;;;;;;;13.93;9.60;;;6.20;99.90;;;;;;5014027;28;20183;-81
2023/04/18 04:19:08;;;;;;;17.83;10.50;;;6.30;99.90;;;;;;5015291;28;20700;-82
2023/04/18 04:21:33;;;;;;;13.73;9.57;;;6.30;99.90;;;;;;5013816;28;20223;-82
2023/04/18 04:24:00;;;;;;;16.53;9.40;;;6.30;99.90;;;;;;5030711;28;20179;-83
2023/04/18 04:26:26;;;;;;;17.50;10.27;;;6.20;99.90;;;;;;5015440;28;20225;-84
2023/04/18 04:28:52;;;;;;;16.03;10.53;;;6.20;99.90;;;;;;5014098;28;20225;-83
2023/04/18 04:31:18;;;;;;;17.20;11.43;;;6.20;99.90;;;;;;5015086;28;20230;-83
2023/04/18 04:33:45;;;;;;;14.50;9.97;;;6.20;99.90;;;;;;5015268;28;20187;-83
2023/04/18 04:36:13;;;;;;;15.33;10.17;;;6.30;99.90;;;;;;5030545;28;20233;-83
2023/04/18 04:38:40;;;;;;;13.50;9.63;;;6.30;99.90;;;;;;5014914;28;20208;-82
2023/04/18 04:41:06;;;;;;;14.43;9.73;;;6.30;99.90;;;;;;5014860;28;20167;-84
2023/04/18 04:43:35;;;;;;;16.53;10.33;;;6.30;99.90;;;;;;5012846;28;20179;-83
2023/04/18 04:46:06;;;;;;;15.37;10.90;;;6.20;99.90;;;;;;5014501;28;20611;-84
2023/04/18 04:48:33;;;;;;;14.93;10.03;;;6.20;99.90;;;;;;5013696;28;20183;-83
2023/04/18 04:50:59;;;;;;;14.30;9.57;;;6.20;99.90;;;;;;5012337;28;20229;-84
2023/04/18 04:53:29;;;;;;;14.03;9.47;;;6.30;99.90;;;;;;4997790;28;20180;-84
2023/04/18 04:55:55;;;;;;;14.30;10.10;;;6.20;99.90;;;;;;4996251;28;20246;-81
2023/04/18 04:58:21;;;;;;;15.50;10.40;;;6.20;99.90;;;;;;4993962;28;20172;-82
2023/04/18 05:00:51;;;;;;;14.63;10.53;;;6.20;99.90;;;;;;4998788;28;20268;-83
2023/04/18 05:03:17;;;;;;;17.80;10.17;;;6.20;99.90;;;;;;5013268;28;20274;-82
2023/04/18 05:05:43;;;;;;;16.07;10.13;;;6.20;99.90;;;;;;5013078;28;20182;-82
2023/04/18 05:08:09;;;;;;;14.13;9.93;;;6.20;99.90;;;;;;5014159;28;20259;-82
2023/04/18 05:10:35;;;;;;;14.33;9.97;;;6.10;99.90;;;;;;5013072;28;20259;-81
2023/04/18 05:13:03;;;;;;;15.80;9.83;;;6.10;99.90;;;;;;5013335;28;20179;-82
2023/04/18 05:15:29;;;;;;;12.83;9.53;;;6.10;99.90;;;;;;5013105;28;20179;-81
2023/04/18 05:17:55;;;;;;;14.07;9.67;;;6.20;99.90;;;;;;5014269;28;20175;-81
2023/04/18 05:20:22;;;;;;;13.83;9.70;;;6.20;99.90;;;;;;5013096;28;20218;-83
2023/04/18 05:22:47;;;;;;;12.90;9.57;;;6.20;99.90;;;;;;5014404;28;20186;-81
2023/04/18 05:25:13;;;;;;;15.67;10.20;;;6.20;99.90;;;;;;5014401;28;20213;-82
2023/04/18 05:27:39;;;;;;;12.90;9.43;;;6.20;99.90;;;;;;5013034;28;20187;-82
2023/04/18 05:30:06;;;;;;;15.93;9.53;;;6.20;99.90;;;;;;5012961;28;20186;-82
2023/04/18 05:32:31;;;;;;;14.27;9.80;;;6.30;99.90;;;;;;5013989;28;20163;-82
2023/04/18 05:34:57;;;;;;;17.70;10.17;;;6.30;99.90;;;;;;5013088;28;20209;-83
2023/04/18 05:37:23;;;;;;;15.17;10.67;;;6.30;99.90;;;;;;5013043;28;20179;-82
2023/04/18 05:39:48;;;;;;;16.70;10.10;;;6.40;99.90;;;;;;5012683;28;20824;-83
2023/04/18 05:42:14;;;;;;;13.80;9.40;;;6.50;99.90;;;;;;5012806;28;20233;-82
2023/04/18 05:44:40;;;;;;;14.13;9.63;;;6.50;99.90;;;;;;5012764;28;20629;-82
2023/04/18 05:47:06;;;;;;;14.30;10.00;;;6.40;99.90;;;;;;5013549;28;20227;-82
2023/04/18 05:49:31;;;;;;;14.80;10.53;;;6.40;99.90;;;;;;5014145;28;20175;-82
2023/04/18 05:51:57;;;;;;;12.80;9.27;;;6.30;99.90;;;;;;5013778;28;20654;-83
2023/04/18 05:54:26;;;;;;;15.40;10.10;;;6.30;99.90;;;;;;5013935;28;20535;-83
2023/04/18 05:56:52;;;;;;;16.70;9.90;;;6.30;99.90;;;;;;5012689;28;20606;-83
2023/04/18 05:59:19;;;;;;;13.17;9.43;;;6.30;99.90;;;;;;5012532;28;20720;-83
2023/04/18 06:01:45;;;;;;;14.13;9.73;;;6.40;99.90;;;;;;5013493;28;20206;-83
2023/04/18 06:04:11;;;;;;;14.60;10.30;;;6.30;99.90;;;;;;5013972;28;20175;-83
2023/04/18 06:06:37;;;;;;;15.47;10.20;;;6.30;99.90;;;;;;5013835;28;20480;-83
2023/04/18 06:09:03;;;;;;;17.90;10.27;;;6.30;99.90;;;;;;5012490;28;20227;-83
2023/04/18 06:11:32;;;;;;;14.73;10.30;;;6.40;99.90;;;;;;5012571;28;20645;-83
2023/04/18 06:13:58;;;;;;;16.83;10.70;;;6.40;99.90;;;;;;5013784;28;20171;-84
2023/04/18 06:16:24;;;;;;;16.83;10.27;;;6.50;99.90;;;;;;5012339;28;20194;-83
2023/04/18 06:18:49;;;;;;;16.43;10.43;;;6.50;99.90;;;;;;5016042;28;20229;-84
2023/04/18 06:21:15;;;;;;;14.33;9.83;;;6.50;99.90;;;;;;5017761;28;20502;-82
2023/04/18 06:23:41;;;;;;;18.10;11.07;;;6.50;99.90;;;;;;5017744;28;20613;-83
2023/04/18 06:26:08;;;;;;;17.50;11.17;;;6.50;99.90;;;;;;5017747;28;20179;-82
2023/04/18 06:28:33;;;;;;;17.27;11.10;;;6.50;99.90;;;;;;5017771;28;20621;-83
2023/04/18 06:30:59;;;;;;;15.30;10.83;;;6.60;99.90;;;;;;5017192;28;20240;-82
2023/04/18 06:33:27;;;;;;;16.17;11.27;;;6.60;99.90;;;;;;5017578;28;20172;-84
2023/04/18 06:35:53;;;;;;;15.50;10.73;;;6.60;99.90;;;;;;5016254;28;20183;-83
2023/04/18 06:38:19;;;;;;;17.60;10.13;;;6.70;99.90;;;;;;5017565;28;20175;-83
2023/04/18 06:40:45;;;;;;;15.50;9.97;;;6.70;99.90;;;;;;5017077;28;20213;-83
2023/04/18 06:43:10;;;;;;;13.30;9.70;;;6.70;99.90;;;;;;5032691;28;20233;-83
2023/04/18 06:45:37;;;;;;;13.90;9.90;;;6.70;99.90;;;;;;5015937;28;20330;-84
2023/04/18 06:48:03;;;;;;;13.07;10.20;;;6.70;99.90;;;;;;5015838;28;20194;-82
2023/04/18 06:50:29;;;;;;;15.43;10.30;;;6.80;99.90;;;;;;5015740;28;20659;-83
2023/04/18 06:52:55;;;;;;;14.37;9.93;;;6.80;99.90;;;;;;5017167;28;20194;-82
2023/04/18 06:55:20;;;;;;;13.47;9.50;;;6.90;99.90;;;;;;5017132;28;20179;-83
2023/04/18 06:57:46;;;;;;;13.77;9.87;;;6.90;99.90;;;;;;5015495;28;20566;-84
2023/04/18 07:00:13;;;;;;;11.33;9.13;;;7.00;99.90;;;;;;5015788;28;20214;-83
2023/04/18 07:02:40;;;;;;;12.37;9.63;;;7.10;99.90;;;;;;5016968;28;20176;-83
2023/04/18 07:05:06;;;;;;;13.53;9.80;;;7.20;99.90;;;;;;5015644;28;20236;-82
2023/04/18 07:07:34;;;;;;;11.10;8.30;;;7.30;99.90;;;;;;5016935;28;20194;-82
2023/04/18 07:10:00;;;;;;;13.80;9.37;;;7.20;99.90;;;;;;5016714;28;20226;-82
2023/04/18 07:12:26;;;;;;;10.80;8.13;;;7.20;99.90;;;;;;5016529;28;20174;-82
2023/04/18 07:14:53;;;;;;;14.50;10.10;;;7.20;99.90;;;;;;5016872;28;20258;-82
2023/04/18 07:17:19;;;;;;;12.03;8.67;;;7.30;99.90;;;;;;5015411;28;20179;-82
2023/04/18 07:19:45;;;;;;;11.70;9.20;;;7.40;99.90;;;;;;5016650;28;20253;-82
2023/04/18 07:22:11;;;;;;;15.17;9.10;;;7.40;99.90;;;;;;5016659;28;20183;-82
2023/04/18 07:24:38;;;;;;;11.37;8.93;;;7.60;99.90;;;;;;5016553;28;20850;-82
2023/04/18 07:27:04;;;;;;;12.07;8.90;;;7.80;99.90;;;;;;5016667;28;20214;-82
2023/04/18 07:29:30;;;;;;;12.03;8.50;;;7.90;99.90;;;;;;5015719;28;20171;-83
2023/04/18 07:31:57;;;;;;;17.83;8.63;;;7.90;99.90;;;;;;5015124;28;20175;-82
2023/04/18 07:34:25;;;;;;;12.27;9.07;;;7.90;99.90;;;;;;5015105;28;20206;-82
2023/04/18 07:36:51;;;;;;;11.83;8.40;;;8.10;99.90;;;;;;5016463;28;20182;-82
2023/04/18 07:39:17;;;;;;;13.83;8.77;;;8.20;99.90;;;;;;5014767;28;20207;-82
2023/04/18 07:41:43;;;;;;;12.63;8.70;;;8.10;99.90;;;;;;5016228;28;20168;-82
2023/04/18 07:44:08;;;;;;;13.03;8.77;;;8.20;99.90;;;;;;5016031;28;20202;-82
2023/04/18 07:46:34;;;;;;;10.37;7.83;;;8.30;99.90;;;;;;5014736;28;20698;-83
2023/04/18 07:49:01;;;;;;;12.10;7.87;;;8.60;99.90;;;;;;5014767;28;20210;-82
2023/04/18 07:51:30;;;;;;;11.47;8.60;;;8.70;99.90;;;;;;5015991;28;20294;-82
2023/04/18 07:53:59;;;;;;;11.57;8.07;;;8.50;99.90;;;;;;5031396;28;20522;-82
2023/04/18 07:56:26;;;;;;;11.13;8.10;;;8.50;99.90;;;;;;5014725;28;20186;-81
2023/04/18 07:58:52;;;;;;;11.40;8.07;;;8.60;99.90;;;;;;5015231;28;20183;-82
2023/04/18 08:01:22;;;;;;;13.17;9.23;;;8.50;99.90;;;;;;5015758;28;20203;-82
2023/04/18 08:03:47;;;;;;;13.03;8.30;;;8.50;99.90;;;;;;5015924;28;20613;-81
2023/04/18 08:06:13;;;;;;;9.57;7.37;;;8.60;99.90;;;;;;5015812;28;20278;-81
2023/04/18 08:08:39;;;;;;;9.67;7.37;;;8.50;99.90;;;;;;5015780;28;20179;-81
2023/04/18 08:11:05;;;;;;;11.63;8.23;;;8.60;99.90;;;;;;5015480;28;20182;-82
2023/04/18 08:13:31;;;;;;;13.47;8.07;;;8.70;99.90;;;;;;5015522;28;20172;-81
2023/04/18 08:15:58;;;;;;;13.43;8.70;;;8.90;99.90;;;;;;5015669;28;20179;-82
2023/04/18 08:18:24;;;;;;;10.25;7.85;;;9.00;99.90;;;;;;5014286;28;20183;-82
2023/04/18 08:20:50;;;;;;;11.90;8.30;;;9.10;99.90;;;;;;5014011;28;20231;-83
2023/04/18 08:23:16;;;;;;;12.33;7.57;;;9.20;99.90;;;;;;5014223;28;20179;-82
2023/04/18 08:25:42;;;;;;;10.07;7.27;;;9.10;99.90;;;;;;5015554;28;20175;-82
2023/04/18 08:28:07;;;;;;;10.53;7.13;;;9.00;99.90;;;;;;5015223;28;20175;-81
2023/04/18 08:30:33;;;;;;;10.10;7.20;;;9.10;99.90;;;;;;5015260;28;20194;-83
2023/04/18 08:32:59;;;;;;;11.17;7.83;;;9.30;99.90;;;;;;5015405;28;20168;-82
2023/04/18 08:35:25;;;;;;;10.03;7.10;;;9.00;99.90;;;;;;5013964;28;20180;-82
2023/04/18 08:37:51;;;;;;;8.93;7.00;;;9.10;99.90;;;;;;5015233;28;20703;-81
2023/04/18 08:40:17;;;;;;;8.77;6.70;;;8.90;99.90;;;;;;5015140;28;20203;-82
2023/04/18 08:42:44;;;;;;;9.37;7.13;;;9.10;99.90;;;;;;5013978;28;20602;-81
2023/04/18 08:45:12;;;;;;;11.20;7.30;;;9.20;99.90;;;;;;5014918;28;20233;-81
2023/04/18 08:47:39;;;;;;;10.83;7.57;;;9.30;99.90;;;;;;5015064;28;20209;-80
2023/04/18 08:50:06;;;;;;;8.82;6.65;;;9.30;99.90;;;;;;5014991;28;20175;-81
2023/04/18 08:52:34;;;;;;;9.30;6.97;;;9.50;99.90;;;;;;5014895;28;20408;-82
2023/04/18 08:55:04;;;;;;;8.80;6.70;;;9.50;99.90;;;;;;5013764;28;20179;-82
2023/04/18 08:57:30;;;;;;;10.15;7.53;;;9.70;99.90;;;;;;5013210;28;20179;-80
2023/04/18 09:00:07;;;;;;;13.13;6.93;;;9.70;99.90;;;;;;5013259;28;20249;-82
2023/04/18 09:02:41;;;;;;;9.73;6.30;;;9.90;99.90;;;;;;5014688;28;20215;-82
2023/04/18 09:05:18;;;;;;;8.13;5.95;;;10.00;99.90;;;;;;5014882;28;20167;-81
2023/04/18 09:07:45;;;;;;;7.47;5.90;;;10.10;99.90;;;;;;5014775;28;20155;-81
2023/04/18 09:10:11;;;;;;;8.38;6.30;;;10.00;99.90;;;;;;5014508;28;20649;-81
2023/04/18 09:12:48;;;;;;;9.35;6.43;;;9.90;99.90;;;;;;5014320;28;20232;-81
2023/04/18 09:15:17;;;;;;;8.68;6.00;;;9.80;99.90;;;;;;5014539;28;20186;-81
2023/04/18 09:17:54;;;;;;;8.68;5.78;;;9.80;99.90;;;;;;5013285;28;20262;-82
2023/04/18 09:20:34;;;;;;;8.73;5.40;;;9.70;99.90;;;;;;5014295;28;20249;-81
2023/04/18 09:23:02;;;;;;;7.65;5.80;;;9.60;99.90;;;;;;5014507;28;20178;-82
2023/04/18 09:25:33;;;;;;;10.00;6.72;;;9.50;99.90;;;;;;5014377;28;20167;-81
2023/04/18 09:28:00;;;;;;;7.60;5.80;;;9.50;99.90;;;;;;5012954;28;20178;-81
2023/04/18 09:30:38;;;;;;;7.72;5.72;;;9.60;99.90;;;;;;5014234;28;20182;-81
2023/04/18 09:33:08;;;;;;;6.75;5.35;;;9.70;99.90;;;;;;5014280;28;20246;-81
2023/04/18 09:35:37;;;;;;;8.25;5.40;;;9.70;99.90;;;;;;5012972;28;20171;-81
2023/04/18 09:38:04;;;;;;;8.82;5.85;;;9.80;99.90;;;;;;5014295;28;20186;-81
2023/04/18 09:40:31;;;;;;;8.48;5.40;;;9.90;99.90;;;;;;5013987;28;20218;-81
2023/04/18 09:42:57;;;;;;;6.45;5.38;;;9.80;99.90;;;;;;5012656;28;20653;-81
2023/04/18 09:45:24;;;;;;;6.50;5.15;;;9.80;99.90;;;;;;5029117;28;20227;-80
2023/04/18 09:47:51;;;;;;;6.37;5.27;;;9.70;99.90;;;;;;5014171;28;20630;-81
2023/04/18 09:50:19;;;;;;;6.80;5.33;;;9.60;99.90;;;;;;5012743;28;20199;-82
2023/04/18 09:52:46;;;;;;;7.50;5.45;;;9.40;99.90;;;;;;5012269;28;20185;-81
2023/04/18 09:55:15;;;;;;;10.90;5.27;;;9.40;99.90;;;;;;5014117;28;20641;-81
2023/04/18 09:57:47;;;;;;;5.93;4.77;;;9.40;99.90;;;;;;5012543;28;20507;-81
2023/04/18 10:00:24;;;;;;;8.68;5.50;;;9.40;99.90;;;;;;5012335;28;20206;-81
2023/04/18 10:02:52;;;;;;;12.73;5.80;;;9.50;99.90;;;;;;5013651;28;20179;-82
2023/04/18 10:05:19;;;;;;;7.10;4.60;;;9.50;99.90;;;;;;5013950;28;20176;-82
2023/04/18 10:07:46;;;;;;;6.20;4.87;;;9.50;99.90;;;;;;5013998;28;20178;-82
2023/04/18 10:10:13;;;;;;;6.80;5.30;;;9.60;99.90;;;;;;5013966;28;20179;-81
2023/04/18 10:12:40;;;;;;;7.83;5.30;;;9.30;99.90;;;;;;5012030;28;20646;-81
2023/04/18 10:15:08;;;;;;;7.32;5.35;;;9.30;99.90;;;;;;5013796;28;20224;-82
2023/04/18 10:17:41;;;;;;;7.27;5.57;;;9.30;99.90;;;;;;5013763;28;20178;-82
2023/04/18 10:20:09;;;;;;;6.10;5.20;;;9.30;99.90;;;;;;5012408;28;20663;-82
2023/04/18 10:22:35;;;;;;;8.98;5.43;;;9.30;99.90;;;;;;5012387;28;20213;-82
2023/04/18 10:25:01;;;;;;;8.38;5.50;;;9.30;99.90;;;;;;5013781;28;20157;-81
2023/04/18 10:27:56;;;;;;;7.57;5.63;;;9.40;99.90;;;;;;5012457;28;20172;-81
2023/04/18 10:30:43;;;;;;;9.10;5.60;;;9.50;99.90;;;;;;5013639;28;20218;-81
2023/04/18 10:33:29;;;;;;;6.10;5.30;;;9.70;99.90;;;;;;5013495;28;20610;-81
2023/04/18 10:36:03;;;;;;;7.13;5.17;;;9.90;99.90;;;;;;5013624;28;20683;-82
2023/04/18 10:38:30;;;;;;;6.05;4.35;;;10.00;99.90;;;;;;5012386;28;20233;-82
2023/04/18 10:41:17;;;;;;;7.80;5.20;;;10.00;99.90;;;;;;5013428;28;20662;-81
2023/04/18 10:44:07;;;;;;;9.80;4.70;;;10.00;99.90;;;;;;5013271;28;20689;-82
2023/04/18 10:46:34;;;;;;;8.23;5.38;;;10.00;99.90;;;;;;5013228;28;20234;-82
2023/04/18 10:49:16;;;;;;;6.85;4.80;;;10.00;99.90;;;;;;5013524;28;20175;-82
2023/04/18 10:51:44;;;;;;;6.28;4.93;;;9.90;99.90;;;;;;5012011;28;20213;-82
2023/04/18 10:54:31;;;;;;;7.90;4.93;;;10.00;99.90;;;;;;5013487;28;20168;-81
2023/04/18 10:56:58;;;;;;;6.32;4.30;;;9.70;99.90;;;;;;5002241;28;20231;-82
2023/04/18 10:59:25;;;;;;;8.48;5.20;;;9.80;99.90;;;;;;5011348;28;20226;-82
2023/04/18 11:01:56;;;;;;;5.85;4.55;;;9.70;99.90;;;;;;5012127;28;20183;-81
2023/04/18 11:04:24;;;;;;;8.23;4.60;;;9.80;99.90;;;;;;5013539;28;20240;-83
2023/04/18 11:06:56;;;;;;;8.25;4.63;;;9.90;99.90;;;;;;5016802;28;20621;-81
2023/04/18 11:09:22;;;;;;;4.95;3.88;;;10.00;99.90;;;;;;5016912;28;20583;-82
2023/04/18 11:12:09;;;;;;;6.40;4.55;;;10.00;99.90;;;;;;5016611;28;20175;-81
2023/04/18 11:14:39;;;;;;;5.30;4.25;;;10.20;99.90;;;;;;5009310;28;20602;-82
2023/04/18 11:17:34;;;;;;;6.85;4.70;;;10.30;99.90;;;;;;5016253;28;20262;-82
2023/04/18 11:20:07;;;;;;;7.72;4.80;;;10.30;99.90;;;;;;4998957;28;20219;-81
2023/04/18 11:22:55;;;;;;;6.47;4.80;;;10.40;99.90;;;;;;5015372;28;20171;-82
2023/04/18 11:25:30;;;;;;;7.50;4.75;;;10.40;99.90;;;;;;5016640;28;20221;-81
2023/04/18 11:28:01;;;;;;;10.65;5.35;;;10.50;99.90;;;;;;5015116;28;20186;-82
2023/04/18 11:30:37;;;;;;;6.95;5.38;;;10.70;99.90;;;;;;5016280;28;20222;-82
2023/04/18 11:33:11;;;;;;;6.25;4.88;;;10.70;99.90;;;;;;5016577;28;20620;-82
2023/04/18 11:35:44;;;;;;;6.50;4.80;;;11.00;99.90;;;;;;5016524;28;20274;-81
2023/04/18 11:38:12;;;;;;;7.15;4.93;;;11.20;99.90;;;;;;5015191;28;20175;-81
2023/04/18 11:40:38;;;;;;;7.75;4.95;;;11.20;99.90;;;;;;5016118;28;20261;-81
2023/04/18 11:43:06;;;;;;;6.38;4.60;;;11.30;99.90;;;;;;5016016;28;20271;-81
2023/04/18 11:45:32;;;;;;;6.25;4.50;;;11.20;99.90;;;;;;5016251;28;20258;-82
2023/04/18 11:47:59;;;;;;;8.20;4.88;;;11.20;99.90;;;;;;5016340;28;20637;-81
2023/04/18 11:50:26;;;;;;;5.40;4.35;;;11.30;99.90;;;;;;5014760;28;20498;-81
2023/04/18 11:52:53;;;;;;;6.68;4.30;;;11.40;99.90;;;;;;5015953;28;20250;-81
2023/04/18 11:55:24;;;;;;;6.28;4.47;;;11.40;99.90;;;;;;5014831;28;20610;-81
2023/04/18 11:57:59;;;;;;;6.35;4.45;;;11.60;99.90;;;;;;5015914;28;20168;-81
2023/04/18 12:00:42;;;;;;;8.18;3.97;;;11.70;99.90;;;;;;5014572;28;20205;-81
2023/04/18 12:03:15;;;;;;;6.55;4.20;;;11.80;99.90;;;;;;5031015;28;20294;-82
2023/04/18 12:05:41;;;;;;;6.57;4.60;;;11.90;99.90;;;;;;5014645;28;20606;-83
2023/04/18 12:08:19;;;;;;;5.85;4.47;;;11.90;99.90;;;;;;5031074;28;20270;-81
2023/04/18 12:10:47;;;;;;;8.15;4.82;;;11.90;99.90;;;;;;5014509;28;20505;-81
2023/04/18 12:13:13;;;;;;;5.97;4.55;;;11.80;99.90;;;;;;5015445;28;20259;-81
2023/04/18 12:15:43;;;;;;;7.35;4.32;;;11.70;99.90;;;;;;5015603;28;20175;-82
2023/04/18 12:18:11;;;;;;;5.32;4.40;;;11.70;99.90;;;;;;5015989;28;20636;-81
2023/04/18 12:20:48;;;;;;;6.38;4.45;;;11.70;99.90;;;;;;5015333;28;20214;-82
2023/04/18 12:23:39;;;;;;;6.68;4.40;;;11.70;99.90;;;;;;5014307;28;20184;-81
2023/04/18 12:26:13;;;;;;;6.53;4.53;;;11.70;99.90;;;;;;5014257;28;20183;-81
2023/04/18 12:28:39;;;;;;;8.35;4.57;;;11.80;99.90;;;;;;5015248;28;20169;-81
2023/04/18 12:31:07;;;;;;;4.47;3.80;;;12.20;99.90;;;;;;5015307;28;20179;-81
2023/04/18 12:33:35;;;;;;;6.72;4.72;;;12.40;99.90;;;;;;5015382;28;20175;-80
2023/04/18 12:36:01;;;;;;;6.75;4.35;;;12.80;99.90;;;;;;5014177;28;20180;-81
2023/04/18 12:38:27;;;;;;;6.38;4.70;;;12.90;99.90;;;;;;5014040;28;20665;-82
2023/04/18 12:40:53;;;;;;;6.35;4.72;;;13.10;99.90;;;;;;5015050;28;20613;-81
2023/04/18 12:43:19;;;;;;;5.40;4.60;;;13.00;99.90;;;;;;5014884;28;20167;-82
2023/04/18 12:45:45;;;;;;;5.90;4.57;;;12.70;99.90;;;;;;5014986;28;20226;-81
2023/04/18 12:48:12;;;;;;;6.15;4.72;;;12.80;99.90;;;;;;5015150;28;20195;-82
2023/04/18 12:50:37;;;;;;;6.25;4.43;;;12.90;99.90;;;;;;5015003;28;20183;-81